Time;durP1;ratioP1;P1;durP2;ratioP2;P2;SDS_P1;SDS_P2;PMS_P1;PMS_P2;Temp;Humidity;BMP_temperature;BMP_pressure;BME280_temperature;BME280_humidity;BME280_pressure;Samples;Min_cycle;Max_cycle;Signal;HPM_P1;HPM_P2
2021/05/11 00:04:54;;;;;;;1.00;0.87;;;;;;;13.92;100.00;98268.69;10457397;28;20242;-78
2021/05/11 00:10:12;;;;;;;1.00;0.70;;;;;;;14.07;100.00;98272.56;10458457;28;20266;-76
2021/05/11 00:15:31;;;;;;;1.17;0.93;;;;;;;14.03;100.00;98255.31;10458422;28;20172;-78
2021/05/11 00:20:50;;;;;;;0.90;0.70;;;;;;;13.93;100.00;98228.78;10458075;28;20538;-78
2021/05/11 00:26:09;;;;;;;1.20;0.93;;;;;;;14.02;100.00;98225.31;10456953;28;20231;-77
2021/05/11 00:31:28;;;;;;;1.00;0.70;;;;;;;14.11;100.00;98228.25;10456401;28;20179;-76
2021/05/11 00:36:47;;;;;;;1.00;0.70;;;;;;;14.05;100.00;98243.81;10458630;28;20164;-78
2021/05/11 00:42:07;;;;;;;1.00;0.63;;;;;;;14.03;100.00;98251.78;10458332;28;20211;-79
2021/05/11 00:47:26;;;;;;;1.43;0.83;;;;;;;13.89;100.00;98232.84;10456682;28;20282;-76
2021/05/11 00:52:45;;;;;;;1.10;0.77;;;;;;;13.88;100.00;98250.66;10457980;28;20581;-77
2021/05/11 00:58:05;;;;;;;1.20;1.10;;;;;;;13.91;100.00;98208.31;10456828;28;20183;-77
2021/05/11 01:03:24;;;;;;;1.00;0.53;;;;;;;13.95;100.00;98181.31;10455364;28;20176;-75
2021/05/11 01:08:43;;;;;;;1.30;0.80;;;;;;;13.93;100.00;98239.81;10457262;28;20179;-77
2021/05/11 01:14:03;;;;;;;1.40;1.23;;;;;;;13.77;100.00;98165.28;10456358;28;20179;-78
2021/05/11 01:25:08;;;;;;;1.30;1.00;;;;;;;13.68;100.00;98179.00;10456523;28;20211;-76
2021/05/11 01:47:30;;;;;;;1.33;1.03;;;;;;;13.70;100.00;98157.22;10454540;28;20203;-76
2021/05/11 02:26:14;;;;;;;1.60;1.50;;;;;;;13.36;100.00;98116.84;10454567;28;20583;-76
2021/05/11 02:31:33;;;;;;;1.40;1.30;;;;;;;13.36;100.00;98100.28;10453119;28;20183;-76
2021/05/11 02:36:52;;;;;;;1.53;1.40;;;;;;;13.36;100.00;98083.69;10455233;28;20179;-75
2021/05/11 02:42:11;;;;;;;1.07;0.77;;;;;;;13.43;100.00;98084.25;10454295;28;20209;-75
2021/05/11 02:47:30;;;;;;;1.30;1.10;;;;;;;13.44;100.00;98085.03;10453189;28;20207;-77
2021/05/11 02:52:50;;;;;;;1.63;1.37;;;;;;;13.44;100.00;98079.50;10461226;28;20634;-77
2021/05/11 02:58:14;;;;;;;1.10;0.87;;;;;;;13.46;100.00;98099.19;10462802;28;20297;-78
2021/05/11 03:03:33;;;;;;;1.57;1.30;;;;;;;13.50;100.00;98083.25;10461060;28;20176;-76
2021/05/11 03:08:52;;;;;;;1.30;0.73;;;;;;;13.50;100.00;98074.97;10462046;28;20560;-78
2021/05/11 03:14:11;;;;;;;1.23;0.87;;;;;;;13.41;100.00;98091.44;10461871;28;20179;-76
2021/05/11 03:19:30;;;;;;;1.00;0.83;;;;;;;13.40;100.00;98103.72;10459402;28;20187;-78
2021/05/11 03:24:49;;;;;;;1.30;1.13;;;;;;;13.36;100.00;98100.28;10461001;28;20685;-77
2021/05/11 03:30:09;;;;;;;1.20;0.90;;;;;;;13.42;100.00;98101.25;10460593;28;20685;-77
2021/05/11 03:35:28;;;;;;;1.60;1.37;;;;;;;13.52;100.00;98111.22;10459601;28;20573;-78
2021/05/11 03:40:47;;;;;;;1.73;1.30;;;;;;;13.42;100.00;98104.03;10459825;28;20176;-77
2021/05/11 03:46:08;;;;;;;1.40;1.30;;;;;;;13.56;100.00;98116.22;10458092;28;20665;-77
2021/05/11 03:51:28;;;;;;;4.33;1.23;;;;;;;13.46;100.00;98110.22;10459585;28;20255;-77
2021/05/11 03:56:46;;;;;;;4.30;2.03;;;;;;;13.48;100.00;98129.91;10460571;28;20183;-77
2021/05/11 04:02:05;;;;;;;2.23;0.90;;;;;;;13.45;100.00;98153.63;10457907;28;20172;-76
2021/05/11 04:07:24;;;;;;;3.30;3.00;;;;;;;13.42;100.00;98123.34;10459394;28;20211;-76
2021/05/11 04:13:06;;;;;;;1.20;1.10;;;;;;;13.43;100.00;98091.75;10459737;28;20175;-78
2021/05/11 04:18:24;;;;;;;5.43;2.40;;;;;;;13.45;100.00;98114.19;10468570;28;20191;-76
2021/05/11 04:23:45;;;;;;;8.20;1.40;;;;;;;13.42;100.00;98052.31;10459141;28;20210;-77
2021/05/11 04:29:04;;;;;;;2.10;1.67;;;;;;;13.32;100.00;98075.53;10458393;28;20223;-77
2021/05/11 04:34:23;;;;;;;2.60;2.07;;;;;;;13.46;100.00;98077.84;10456539;28;20228;-77
2021/05/11 04:39:42;;;;;;;3.10;2.33;;;;;;;13.47;100.00;98089.69;10457232;28;20183;-76
2021/05/11 04:45:01;;;;;;;1.73;1.63;;;;;;;13.51;100.00;98060.72;10457082;28;20210;-78
2021/05/11 04:50:23;;;;;;;1.53;1.43;;;;;;;13.56;100.00;98088.56;10455912;28;20171;-75
2021/05/11 04:55:42;;;;;;;2.23;1.73;;;;;;;13.72;100.00;98074.63;10457935;28;20172;-76
2021/05/11 05:01:02;;;;;;;2.90;2.10;;;;;;;13.79;100.00;98101.25;10456355;28;20176;-76
2021/05/11 05:06:21;;;;;;;2.53;1.83;;;;;;;13.90;100.00;98108.00;10457022;28;20611;-75
2021/05/11 05:11:41;;;;;;;1.90;1.77;;;;;;;13.97;100.00;98105.00;10456268;28;20172;-77
2021/05/11 05:17:00;;;;;;;2.00;1.73;;;;;;;14.24;100.00;98094.25;10454861;28;20210;-78
2021/05/11 05:22:19;;;;;;;1.60;1.30;;;;;;;14.59;100.00;98081.94;10456111;28;20171;-76
2021/05/11 05:33:06;;;;;;;1.93;1.70;;;;;;;15.05;100.00;98067.19;10454896;28;20669;-77
2021/05/11 05:38:27;;;;;;;1.77;1.20;;;;;;;15.17;100.00;98070.66;10455324;28;20171;-77
2021/05/11 05:43:46;;;;;;;4.83;1.37;;;;;;;15.40;100.00;98108.19;10455158;28;20549;-77
2021/05/11 05:49:08;;;;;;;1.97;1.43;;;;;;;15.76;100.00;98117.44;10453845;28;20171;-78
2021/05/11 05:54:27;;;;;;;2.00;1.67;;;;;;;15.95;100.00;98102.41;10468915;28;20551;-78
2021/05/11 05:59:46;;;;;;;1.63;1.53;;;;;;;16.40;100.00;98119.97;10456030;28;20183;-77
2021/05/11 06:05:05;;;;;;;3.00;1.43;;;;;;;16.10;100.00;98122.81;10454383;28;20203;-77
2021/05/11 06:10:29;;;;;;;1.43;1.27;;;;;;;16.24;100.00;98124.97;10455856;28;20179;-77
2021/05/11 06:21:26;;;;;;;2.90;1.97;;;;;;;16.52;100.00;98082.19;10455678;28;20168;-77
2021/05/11 06:26:46;;;;;;;1.90;1.50;;;;;;;16.53;100.00;98083.75;10459537;28;20322;-77
2021/05/11 06:32:05;;;;;;;1.37;1.27;;;;;;;16.80;100.00;98087.28;10462309;28;20179;-77
2021/05/11 06:37:24;;;;;;;2.13;1.93;;;;;;;16.77;100.00;98084.66;10462307;28;20543;-79
2021/05/11 06:42:43;;;;;;;1.13;0.93;;;;;;;16.79;100.00;98072.63;10462986;28;20697;-79
2021/05/11 06:53:48;;;;;;;2.10;1.90;;;;;;;16.61;100.00;98085.72;10462151;28;20172;-77
2021/05/11 06:59:07;;;;;;;1.37;1.23;;;;;;;16.76;100.00;98069.97;10462597;28;20175;-78
2021/05/11 07:04:26;;;;;;;2.43;1.33;;;;;;;16.80;100.00;98063.03;10460030;28;20199;-78
2021/05/11 07:15:06;;;;;;;2.40;1.83;;;;;;;16.68;100.00;98070.78;10461451;28;20175;-78
2021/05/11 07:20:25;;;;;;;1.70;1.33;;;;;;;16.77;100.00;98060.41;10459416;28;20646;-78
2021/05/11 07:25:55;;;;;;;1.40;1.30;;;;;;;16.50;100.00;98063.22;10460880;28;20250;-76
2021/05/11 07:31:16;;;;;;;1.67;1.57;;;;;;;16.70;100.00;98038.53;10458976;28;20188;-79
2021/05/11 07:36:35;;;;;;;1.33;1.23;;;;;;;16.94;100.00;98012.41;10459010;28;20194;-78
2021/05/11 07:41:54;;;;;;;1.43;1.20;;;;;;;17.02;100.00;97994.19;10460020;28;20262;-76
2021/05/11 07:47:22;;;;;;;1.87;1.20;;;;;;;17.20;100.00;98018.34;10458962;28;20618;-75
2021/05/11 08:31:36;;;;;;;1.90;1.73;;;;;;;18.22;100.00;98018.47;10457771;28;20168;-78
2021/05/11 08:36:55;;;;;;;1.27;1.10;;;;;;;18.10;100.00;98011.09;10457822;28;20198;-77
2021/05/11 08:42:14;;;;;;;2.17;1.80;;;;;;;18.34;100.00;98016.66;10457460;28;20681;-79
2021/05/11 08:47:48;;;;;;;2.30;1.20;;;;;;;18.53;100.00;98024.41;10456288;28;20238;-77
2021/05/11 09:28:01;;;;;;;1.40;1.30;;;;;;;19.23;100.00;98051.31;10456353;28;20231;-78
2021/05/11 09:33:06;;;;;;;1.50;1.40;;;;;;;19.64;100.00;98031.44;10453574;28;20274;-77
2021/05/11 10:51:19;;;;;;;1.63;1.50;;;;;;;21.59;84.68;97997.13;10454359;28;20184;-78
2021/05/11 10:56:44;;;;;;;2.23;2.03;;;;;;;21.69;86.45;98019.63;10454922;28;20175;-78
2021/05/11 11:08:37;;;;;;;1.80;1.70;;;;;;;20.52;73.71;98048.16;10449398;28;20697;-77
2021/05/11 11:13:56;;;;;;;4.87;2.47;;;;;;;20.23;74.50;98030.81;10460550;28;20195;-78
2021/05/11 11:19:17;;;;;;;3.33;1.77;;;;;;;20.28;79.41;98028.06;10460638;28;20262;-79
2021/05/11 11:24:37;;;;;;;1.70;1.60;;;;;;;20.33;74.83;98021.78;10459835;28;20207;-77
2021/05/11 11:30:01;;;;;;;1.70;1.50;;;;;;;20.31;74.97;98018.72;10460854;28;20215;-77
2021/05/11 11:35:20;;;;;;;1.90;1.30;;;;;;;20.31;75.16;98026.34;10459908;28;20179;-77
2021/05/11 11:40:39;;;;;;;2.77;1.87;;;;;;;20.26;74.85;98022.22;10497878;28;20183;-78
2021/05/11 11:45:58;;;;;;;2.07;1.97;;;;;;;20.01;74.20;98052.06;10496235;28;20202;-78
2021/05/11 11:51:25;;;;;;;2.07;1.57;;;;;;;19.77;76.63;98031.91;10483422;28;20175;-78
2021/05/11 12:02:22;;;;;;;2.73;2.30;;;;;;;19.67;79.37;97992.16;10495080;28;20249;-77
2021/05/11 12:07:59;;;;;;;1.73;1.63;;;;;;;19.69;81.75;98022.41;10481117;28;20202;-79
2021/05/11 12:13:22;;;;;;;2.47;2.27;;;;;;;19.41;81.36;98035.94;10458742;28;20172;-77
2021/05/11 12:19:09;;;;;;;2.10;1.90;;;;;;;19.22;82.79;98042.19;10457229;28;20657;-77
2021/05/11 12:24:31;;;;;;;2.00;1.80;;;;;;;19.16;83.64;98035.72;10457516;28;20199;-78
2021/05/11 12:30:08;;;;;;;2.87;2.10;;;;;;;19.13;84.54;98016.41;10457444;28;20219;-77
2021/05/11 12:35:29;;;;;;;3.17;2.20;;;;;;;19.41;83.90;98018.41;10456915;28;20175;-78
2021/05/11 12:41:03;;;;;;;3.67;3.37;;;;;;;19.19;88.51;98011.69;10469862;28;20179;-77
2021/05/11 12:46:29;;;;;;;2.77;2.57;;;;;;;19.26;89.41;98035.16;10482693;28;20237;-76
2021/05/11 12:51:54;;;;;;;3.07;2.87;;;;;;;18.90;91.79;98045.88;10489876;28;20217;-77
2021/05/11 12:57:32;;;;;;;3.17;2.87;;;;;;;18.76;93.92;98068.94;10477239;28;20188;-77
2021/05/11 13:25:30;;;;;;;3.70;3.30;;;;;;;18.55;100.00;98094.31;10497602;28;20657;-76
2021/05/11 13:31:00;;;;;;;6.27;4.43;;;;;;;18.04;100.00;98102.06;10496852;28;20191;-75
2021/05/11 13:36:19;;;;;;;3.50;3.17;;;;;;;17.97;100.00;98093.28;10497071;28;20804;-75
2021/05/11 13:41:39;;;;;;;5.70;3.67;;;;;;;17.84;100.00;98098.31;10498001;28;20178;-75
2021/05/11 13:46:58;;;;;;;6.60;4.23;;;;;;;17.85;100.00;98097.06;10496150;28;20242;-74
2021/05/11 13:52:17;;;;;;;3.53;3.23;;;;;;;17.66;100.00;98092.81;10496684;28;20175;-75
2021/05/11 14:03:14;;;;;;;7.90;4.60;;;;;;;17.61;100.00;98085.09;10496059;28;20167;-75
2021/05/11 14:08:32;;;;;;;5.30;3.93;;;;;;;17.62;100.00;98083.84;10496735;28;20202;-75
2021/05/11 14:13:51;;;;;;;5.93;3.83;;;;;;;17.59;100.00;98088.34;10497267;28;20174;-75
2021/05/11 14:19:11;;;;;;;5.40;4.90;;;;;;;17.31;100.00;98094.47;10496114;28;20178;-75
2021/05/11 14:24:30;;;;;;;5.50;5.10;;;;;;;17.34;100.00;98098.31;10495871;28;20210;-75
2021/05/11 14:29:49;;;;;;;7.80;5.37;;;;;;;17.48;100.00;98092.88;10496382;28;20218;-75
2021/05/11 14:35:09;;;;;;;7.60;4.97;;;;;;;17.33;100.00;98088.44;10494564;28;20214;-77
2021/05/11 14:40:28;;;;;;;9.00;4.50;;;;;;;17.04;100.00;98110.41;10495605;28;20253;-74
2021/05/11 14:45:47;;;;;;;5.83;3.97;;;;;;;16.90;100.00;98109.03;10497033;28;20830;-75
2021/05/11 14:51:08;;;;;;;3.10;2.70;;;;;;;16.74;100.00;98113.34;10504261;28;20183;-75
2021/05/11 14:56:27;;;;;;;3.33;3.10;;;;;;;16.61;100.00;98118.28;10504179;28;20174;-75
2021/05/11 15:01:46;;;;;;;3.40;3.10;;;;;;;16.65;100.00;98116.13;10502711;28;20179;-77
2021/05/11 15:07:05;;;;;;;3.80;2.50;;;;;;;16.44;100.00;98117.81;10502379;28;20684;-76
2021/05/11 15:12:25;;;;;;;2.90;2.70;;;;;;;16.43;100.00;98113.50;10502564;28;20182;-76
2021/05/11 15:23:03;;;;;;;2.60;2.40;;;;;;;16.40;100.00;98124.72;10502519;28;20194;-76
2021/05/11 15:28:22;;;;;;;3.37;1.90;;;;;;;16.34;100.00;98126.59;10502156;28;20230;-75
2021/05/11 15:33:42;;;;;;;2.97;2.40;;;;;;;16.11;100.00;98118.81;10501653;28;20179;-75
2021/05/11 15:39:01;;;;;;;3.83;1.97;;;;;;;16.13;100.00;98111.56;10501413;28;20171;-76
2021/05/11 15:44:20;;;;;;;2.87;2.67;;;;;;;16.14;100.00;98117.91;10502417;28;20171;-75
2021/05/11 15:49:43;;;;;;;2.53;1.57;;;;;;;16.12;100.00;98125.91;10499864;28;20582;-75
2021/05/11 15:55:02;;;;;;;2.77;2.50;;;;;;;15.98;100.00;98127.25;10502083;28;20610;-75
2021/05/11 16:00:22;;;;;;;1.53;1.43;;;;;;;15.98;100.00;98120.94;10500795;28;20535;-77
2021/05/11 16:05:41;;;;;;;4.10;1.80;;;;;;;15.93;100.00;98124.28;10499258;28;20202;-77
2021/05/11 16:11:01;;;;;;;2.10;1.87;;;;;;;15.94;100.00;98109.19;10501448;28;20167;-77
2021/05/11 16:16:20;;;;;;;2.30;2.10;;;;;;;15.90;100.00;98116.91;10499885;28;20178;-76
2021/05/11 16:21:39;;;;;;;2.00;1.90;;;;;;;15.84;100.00;98120.72;10500890;28;20553;-77
2021/05/11 16:26:59;;;;;;;1.93;1.83;;;;;;;15.74;100.00;98139.34;10499161;28;20231;-78
2021/05/11 16:32:18;;;;;;;2.60;2.40;;;;;;;15.52;100.00;98138.59;10499287;28;20175;-76
2021/05/11 16:37:39;;;;;;;2.13;1.80;;;;;;;15.54;100.00;98149.25;10500173;28;20179;-76
2021/05/11 16:42:59;;;;;;;5.10;2.50;;;;;;;15.55;100.00;98153.53;10499941;28;20174;-77
2021/05/11 16:48:18;;;;;;;2.57;2.37;;;;;;;15.40;100.00;98156.09;10496929;28;20224;-77
2021/05/11 16:53:36;;;;;;;2.17;1.80;;;;;;;15.28;100.00;98162.47;10498597;28;20171;-77
2021/05/11 16:58:56;;;;;;;1.77;1.67;;;;;;;15.31;100.00;98163.56;10499423;28;20629;-75
2021/05/11 17:04:15;;;;;;;2.83;2.63;;;;;;;15.24;100.00;98178.47;10496696;28;20215;-76
2021/05/11 17:09:33;;;;;;;3.13;2.80;;;;;;;15.19;100.00;98179.00;10497637;28;20174;-75
2021/05/11 17:14:52;;;;;;;2.50;2.30;;;;;;;15.13;100.00;98187.56;10498678;28;20213;-77
2021/05/11 17:20:13;;;;;;;2.03;1.40;;;;;;;15.10;100.00;98194.03;10497288;28;20277;-79
2021/05/11 17:25:32;;;;;;;2.33;1.60;;;;;;;15.10;100.00;98196.81;10498116;28;20203;-74
2021/05/11 17:30:57;;;;;;;2.60;2.03;;;;;;;15.03;100.00;98205.34;10495909;28;20198;-76
2021/05/11 17:36:16;;;;;;;2.20;1.77;;;;;;;14.97;100.00;98202.41;10498097;28;20171;-74
2021/05/11 17:41:35;;;;;;;2.37;2.17;;;;;;;15.01;100.00;98207.81;10498068;28;20178;-75
2021/05/11 17:46:55;;;;;;;4.33;3.00;;;;;;;14.97;100.00;98219.00;10496150;28;20210;-76
2021/05/11 17:52:14;;;;;;;2.87;2.53;;;;;;;14.89;100.00;98231.56;10497590;28;20178;-75
2021/05/11 17:57:33;;;;;;;2.53;1.83;;;;;;;14.91;100.00;98231.09;10497767;28;20204;-76
2021/05/11 18:02:52;;;;;;;6.00;3.03;;;;;;;14.85;100.00;98253.03;10494983;28;20563;-77
2021/05/11 18:08:13;;;;;;;5.60;3.37;;;;;;;14.81;100.00;98251.63;10497043;28;20565;-76
2021/05/11 18:13:33;;;;;;;2.33;1.70;;;;;;;14.80;100.00;98274.97;10497291;28;20253;-77
2021/05/11 18:18:52;;;;;;;2.43;2.23;;;;;;;14.69;100.00;98283.66;10495987;28;20269;-78
2021/05/11 18:24:12;;;;;;;2.97;2.67;;;;;;;14.33;100.00;98292.78;10504466;28;20239;-77
2021/05/11 18:29:31;;;;;;;3.60;3.10;;;;;;;14.16;100.00;98294.84;10504702;28;20210;-76
2021/05/11 18:34:50;;;;;;;2.33;1.73;;;;;;;13.90;100.00;98309.81;10503627;28;20183;-76
2021/05/11 18:40:09;;;;;;;1.97;1.50;;;;;;;13.80;100.00;98310.94;10503708;28;20170;-75
2021/05/11 18:45:28;;;;;;;2.63;2.10;;;;;;;13.67;100.00;98310.09;10504440;28;20673;-76
2021/05/11 18:50:47;;;;;;;3.93;2.93;;;;;;;13.59;100.00;98314.28;10502086;28;20175;-76
2021/05/11 18:56:06;;;;;;;1.80;1.70;;;;;;;13.62;100.00;98323.69;10502728;28;20629;-75
2021/05/11 19:01:25;;;;;;;1.50;1.30;;;;;;;13.50;100.00;98331.91;10502667;28;20178;-75
2021/05/11 19:06:45;;;;;;;1.43;0.93;;;;;;;13.47;100.00;98327.28;10503666;28;20202;-77
2021/05/11 19:12:08;;;;;;;1.30;1.20;;;;;;;13.36;100.00;98332.31;10503685;28;20261;-77
2021/05/11 19:17:27;;;;;;;2.37;2.13;;;;;;;13.31;100.00;98330.84;10501323;28;20179;-76
2021/05/11 19:22:46;;;;;;;1.53;1.37;;;;;;;13.24;100.00;98338.56;10503285;28;20614;-76
2021/05/11 19:28:05;;;;;;;2.13;1.47;;;;;;;13.28;100.00;98342.00;10502440;28;20317;-77
2021/05/11 19:33:27;;;;;;;1.60;1.50;;;;;;;13.29;100.00;98344.31;10501637;28;20216;-75
2021/05/11 19:38:46;;;;;;;2.00;1.50;;;;;;;13.25;100.00;98348.38;10501646;28;20265;-74
2021/05/11 19:44:08;;;;;;;5.63;2.47;;;;;;;13.21;100.00;98353.22;10502601;28;20190;-77
2021/05/11 19:49:28;;;;;;;2.07;1.87;;;;;;;13.11;100.00;98360.59;10501090;28;20540;-76
2021/05/11 19:54:47;;;;;;;1.80;1.60;;;;;;;13.14;100.00;98362.47;10502103;28;20210;-76
2021/05/11 20:00:07;;;;;;;1.20;1.00;;;;;;;13.14;100.00;98348.66;10501754;28;20625;-75
2021/05/11 20:05:26;;;;;;;2.07;1.87;;;;;;;13.01;100.00;98355.31;10500476;28;20202;-75
2021/05/11 20:10:45;;;;;;;1.30;1.10;;;;;;;13.04;100.00;98354.47;10501410;28;20789;-74
2021/05/11 20:16:04;;;;;;;2.50;1.40;;;;;;;13.01;100.00;98375.44;10499915;28;20171;-75
2021/05/11 20:21:24;;;;;;;6.30;1.33;;;;;;;12.97;100.00;98376.72;10501083;28;20544;-77
2021/05/11 20:26:43;;;;;;;1.20;1.10;;;;;;;12.97;100.00;98373.97;10500244;28;20226;-76
2021/05/11 20:32:02;;;;;;;1.93;1.10;;;;;;;13.01;100.00;98382.91;10499350;28;20179;-76
2021/05/11 20:37:22;;;;;;;1.27;1.03;;;;;;;12.92;100.00;98385.53;10500318;28;20166;-75
2021/05/11 20:42:41;;;;;;;1.20;1.03;;;;;;;12.97;100.00;98379.50;10498783;28;20166;-76
2021/05/11 20:47:59;;;;;;;6.13;1.03;;;;;;;12.95;100.00;98387.41;10497994;28;20206;-75
2021/05/11 20:53:20;;;;;;;1.30;1.20;;;;;;;12.92;100.00;98382.78;10499539;28;20633;-75
2021/05/11 20:58:39;;;;;;;1.30;0.90;;;;;;;12.87;100.00;98380.47;10499329;28;20174;-75
2021/05/11 21:03:59;;;;;;;1.10;0.70;;;;;;;12.79;100.00;98379.91;10497981;28;20193;-75
2021/05/11 21:09:18;;;;;;;1.40;1.20;;;;;;;12.85;100.00;98380.91;10499098;28;20178;-75
2021/05/11 21:14:37;;;;;;;1.80;0.80;;;;;;;12.94;100.00;98378.38;10497501;28;20182;-76
2021/05/11 21:19:57;;;;;;;2.27;1.53;;;;;;;13.02;100.00;98378.94;10497248;28;20267;-75
2021/05/11 21:25:16;;;;;;;1.40;1.20;;;;;;;12.92;100.00;98382.78;10498164;28;20202;-76
2021/05/11 21:30:36;;;;;;;2.20;1.17;;;;;;;12.86;100.00;98373.41;10497447;28;20277;-76
2021/05/11 21:35:55;;;;;;;1.70;1.20;;;;;;;12.89;100.00;98383.63;10498002;28;20175;-76
2021/05/11 21:41:14;;;;;;;1.40;1.30;;;;;;;12.91;100.00;98383.97;10497987;28;20183;-75
2021/05/11 21:46:33;;;;;;;1.43;1.03;;;;;;;12.86;100.00;98396.28;10495415;28;20206;-76
2021/05/11 21:51:52;;;;;;;1.20;0.90;;;;;;;12.84;100.00;98392.41;10497863;28;20646;-76
2021/05/11 21:57:11;;;;;;;1.13;0.93;;;;;;;12.76;100.00;98388.25;10496893;28;20183;-76
2021/05/11 22:02:30;;;;;;;1.50;1.40;;;;;;;12.70;100.00;98398.22;10495377;28;20637;-75
2021/05/11 22:07:49;;;;;;;1.10;0.83;;;;;;;12.72;100.00;98408.88;10497091;28;20230;-76
2021/05/11 22:13:10;;;;;;;1.47;0.90;;;;;;;12.68;100.00;98413.69;10497413;28;20171;-75
2021/05/11 22:18:29;;;;;;;1.93;1.83;;;;;;;12.60;100.00;98415.81;10495893;28;20191;-75
2021/05/11 22:23:48;;;;;;;2.07;1.40;;;;;;;12.56;100.00;98423.41;10497091;28;20644;-76
2021/05/11 22:29:07;;;;;;;1.87;1.67;;;;;;;12.59;100.00;98428.06;10496199;28;20261;-76
2021/05/11 22:34:26;;;;;;;1.70;1.60;;;;;;;12.65;100.00;98433.84;10494520;28;20171;-74
2021/05/11 22:39:45;;;;;;;3.10;2.00;;;;;;;12.61;100.00;98428.41;10495912;28;20175;-75
2021/05/11 22:45:05;;;;;;;2.40;1.90;;;;;;;12.63;100.00;98430.75;10495461;28;20285;-76
2021/05/11 22:50:23;;;;;;;1.80;1.70;;;;;;;12.58;100.00;98423.75;10494332;28;20261;-77
2021/05/11 22:55:45;;;;;;;3.37;2.37;;;;;;;12.51;100.00;98421.16;10496570;28;20175;-75
2021/05/11 23:01:05;;;;;;;1.77;1.67;;;;;;;12.57;100.00;98426.91;10493908;28;20272;-75
2021/05/11 23:06:24;;;;;;;2.20;1.90;;;;;;;12.62;100.00;98423.66;10495705;28;20206;-74
2021/05/11 23:11:43;;;;;;;2.30;2.10;;;;;;;12.60;100.00;98421.31;10503605;28;20265;-74
2021/05/11 23:17:05;;;;;;;2.67;2.10;;;;;;;12.59;100.00;98416.25;10502219;28;20198;-75
2021/05/11 23:22:24;;;;;;;1.67;1.57;;;;;;;12.60;100.00;98424.06;10503316;28;20170;-75
2021/05/11 23:27:44;;;;;;;2.30;1.90;;;;;;;12.57;100.00;98418.63;10502614;28;20226;-75
2021/05/11 23:33:03;;;;;;;2.30;2.10;;;;;;;12.47;100.00;98414.16;10500672;28;20175;-76
2021/05/11 23:38:22;;;;;;;2.67;2.47;;;;;;;12.45;100.00;98422.84;10501323;28;20582;-76
2021/05/11 23:43:41;;;;;;;5.17;3.20;;;;;;;12.51;100.00;98409.31;10502663;28;20175;-75
2021/05/11 23:49:02;;;;;;;3.00;2.10;;;;;;;12.43;100.00;98418.97;10500411;28;20206;-75
2021/05/11 23:54:21;;;;;;;3.00;2.27;;;;;;;12.42;100.00;98409.94;10502071;28;20628;-75
2021/05/11 23:59:41;;;;;;;2.93;2.23;;;;;;;12.41;100.00;98405.59;10500834;28;20175;-75
